Adventure — SVKA — position and weather

sailwx.info

Track history (hours):
 
Tides and Currents Weather Stations Pressure Air Temp Water Temp Dewpoint Dewpoint Depression Visibility Wind Speed Wind Dir Waves Ship Positions

Adventure

Last reported at 2017-Nov-13 01:45 UTC. Time now 2017-Nov-22 03:43 UTC.
Position N 01°15' E 103°56'.
Warning: this ship's position is 9 days out of date.

Length 333 m; draft 11 m.

Type: Tanker. MMSI: 240644000.

Date/timePositionNaut miles runAvg speedWind from/ knotsBaromVisibWave heightAir tempDewpointWater temp
2017-Nov-13 01:45N 01°15' E 103°56'0 0.1
2017-Nov-13 01:30N 01°15' E 103°56'0 0.1
2017-Nov-13 00:51N 01°15' E 103°55'0 0.0
2017-Nov-13 00:24N 01°16' E 103°55'0 0.1
2017-Nov-12 23:48N 01°16' E 103°55'0 0.3
2017-Nov-12 23:30N 01°16' E 103°56'0 0.1
2017-Nov-12 22:54N 01°16' E 103°56'0 0.2
2017-Nov-12 22:30N 01°16' E 103°56'0 0.1
2017-Nov-12 22:00N 01°16' E 103°56'0 0.0
2017-Nov-12 21:30N 01°16' E 103°56'0 0.0
2017-Nov-12 20:54N 01°16' E 103°56'0 0.1
2017-Nov-12 20:24N 01°16' E 103°56'0 0.0
2017-Nov-12 19:51N 01°16' E 103°56'0 0.2
2017-Nov-12 19:30N 01°16' E 103°56'0 0.0
2017-Nov-12 19:00N 01°16' E 103°56'0 0.0
2017-Nov-12 18:30N 01°16' E 103°56'0 0.2
2017-Nov-12 18:00N 01°16' E 103°56'0 0.2
2017-Nov-12 17:30N 01°16' E 103°56'0 0.0
2017-Nov-12 17:00N 01°16' E 103°56'0 0.0
2017-Nov-12 16:24N 01°16' E 103°56'0 0.0
2017-Nov-12 16:01N 01°16' E 103°56'0 0.0
2017-Nov-12 15:30N 01°16' E 103°56'0 0.0
2017-Nov-12 14:30N 01°15' E 103°56'0 0.0
2017-Nov-12 14:00N 01°15' E 103°56'0 0.0
2017-Nov-12 13:24N 01°15' E 103°56'0 0.0
2017-Nov-12 13:00N 01°15' E 103°56'0 0.0
2017-Nov-12 12:30N 01°16' E 103°56'0 0.0
2017-Nov-12 11:54N 01°15' E 103°56'0 0.0
2017-Nov-12 11:30N 01°16' E 103°56'0 0.0
2017-Nov-12 11:00N 01°16' E 103°56'0 0.1
2017-Nov-12 10:18N 01°15' E 103°56'0 0.1
2017-Nov-12 10:00N 01°15' E 103°56'0 0.0
2017-Nov-12 09:30N 01°15' E 103°56'0 0.0
2017-Nov-12 09:00N 01°16' E 103°56'0 0.1
2017-Nov-12 08:30N 01°15' E 103°56'0 0.2
2017-Nov-12 08:01N 01°15' E 103°56'0 0.2
2017-Nov-12 07:30N 01°15' E 103°56'0 0.3
2017-Nov-12 07:00N 01°15' E 103°56'1 1.2
2017-Nov-12 06:30N 01°15' E 103°56'2 4.6
2017-Nov-12 06:01N 01°16' E 103°58'0 1.0
2017-Nov-12 05:30N 01°16' E 103°59'1 2.3
2017-Nov-12 05:01N 01°16' E 103°60'3 5.4
2017-Nov-12 04:30N 01°16' E 104°03'4 7.0
2017-Nov-12 03:59N 01°17' E 104°06'4 8.8
2017-Nov-12 03:30N 01°17' E 104°10'510.0
2017-Nov-12 02:59N 01°18' E 104°15'510.2
2017-Nov-12 02:29N 01°19' E 104°20'  
Track history (hours):
 
Tides and Currents Weather Stations Pressure Air Temp Water Temp Dewpoint Dewpoint Depression Visibility Wind Speed Wind Dir Waves Ship Positions

Adventure

Last reported at 2017-Nov-13 01:45 UTC. Time now 2017-Nov-22 03:43 UTC.
Position N 01°15' E 103°56'.
Warning: this ship's position is 9 days out of date.

Length 333 m; draft 11 m.

Type: Tanker. MMSI: 240644000.

Date/timePositionNaut miles runAvg speedWind from/ knotsBaromVisibWave heightAir tempDewpointWater temp
2017-Nov-13 01:45N 01°15' E 103°56'0 0.1
2017-Nov-13 01:30N 01°15' E 103°56'0 0.1
2017-Nov-13 00:51N 01°15' E 103°55'0 0.0
2017-Nov-13 00:24N 01°16' E 103°55'0 0.1
2017-Nov-12 23:48N 01°16' E 103°55'0 0.3
2017-Nov-12 23:30N 01°16' E 103°56'0 0.1
2017-Nov-12 22:54N 01°16' E 103°56'0 0.2
2017-Nov-12 22:30N 01°16' E 103°56'0 0.1
2017-Nov-12 22:00N 01°16' E 103°56'0 0.0
2017-Nov-12 21:30N 01°16' E 103°56'0 0.0
2017-Nov-12 20:54N 01°16' E 103°56'0 0.1
2017-Nov-12 20:24N 01°16' E 103°56'0 0.0
2017-Nov-12 19:51N 01°16' E 103°56'0 0.2
2017-Nov-12 19:30N 01°16' E 103°56'0 0.0
2017-Nov-12 19:00N 01°16' E 103°56'0 0.0
2017-Nov-12 18:30N 01°16' E 103°56'0 0.2
2017-Nov-12 18:00N 01°16' E 103°56'0 0.2
2017-Nov-12 17:30N 01°16' E 103°56'0 0.0
2017-Nov-12 17:00N 01°16' E 103°56'0 0.0
2017-Nov-12 16:24N 01°16' E 103°56'0 0.0
2017-Nov-12 16:01N 01°16' E 103°56'0 0.0
2017-Nov-12 15:30N 01°16' E 103°56'0 0.0
2017-Nov-12 14:30N 01°15' E 103°56'0 0.0
2017-Nov-12 14:00N 01°15' E 103°56'0 0.0
2017-Nov-12 13:24N 01°15' E 103°56'0 0.0
2017-Nov-12 13:00N 01°15' E 103°56'0 0.0
2017-Nov-12 12:30N 01°16' E 103°56'0 0.0
2017-Nov-12 11:54N 01°15' E 103°56'0 0.0
2017-Nov-12 11:30N 01°16' E 103°56'0 0.0
2017-Nov-12 11:00N 01°16' E 103°56'0 0.1
2017-Nov-12 10:18N 01°15' E 103°56'0 0.1
2017-Nov-12 10:00N 01°15' E 103°56'0 0.0
2017-Nov-12 09:30N 01°15' E 103°56'0 0.0
2017-Nov-12 09:00N 01°16' E 103°56'0 0.1
2017-Nov-12 08:30N 01°15' E 103°56'0 0.2
2017-Nov-12 08:01N 01°15' E 103°56'0 0.2
2017-Nov-12 07:30N 01°15' E 103°56'0 0.3
2017-Nov-12 07:00N 01°15' E 103°56'1 1.2
2017-Nov-12 06:30N 01°15' E 103°56'2 4.6
2017-Nov-12 06:01N 01°16' E 103°58'0 1.0
2017-Nov-12 05:30N 01°16' E 103°59'1 2.3
2017-Nov-12 05:01N 01°16' E 103°60'3 5.4
2017-Nov-12 04:30N 01°16' E 104°03'4 7.0
2017-Nov-12 03:59N 01°17' E 104°06'4 8.8
2017-Nov-12 03:30N 01°17' E 104°10'510.0
2017-Nov-12 02:59N 01°18' E 104°15'510.2
2017-Nov-12 02:29N 01°19' E 104°20'  

Dump ship's entire track history